Terminal Aerodrome Forecast
Issued by NWS Wakefield, VA

Home | Current Version | Previous Version | Text Only | Print | Product List | Glossary On
Versions: 1 2 3 4 5 6 7 8 9 10 11 12 13 14 15
000
FTUS41 KAKQ 152300
TAFRIC
TAF
KRIC 152337Z 1600/1624 VRB04KT P6SM BKN040 BKN250
     FM160500 VRB04KT P6SM BKN015 BKN040 BKN080
     FM161100 27003KT P6SM BKN012 BKN060
     FM161400 35006KT P6SM SCT040 BKN080=

USA.gov is the U.S. government's official web portal to all federal, state and local government web resources and services.